createdAt,value
2023-03-11T00:00:18.744Z,24.10
2023-03-11T00:03:09.863Z,24.09
2023-03-11T00:05:56.458Z,24.09
2023-03-11T00:08:41.880Z,24.09
2023-03-11T00:11:27.266Z,24.11
2023-03-11T00:14:12.202Z,24.10
2023-03-11T00:16:57.371Z,24.11
2023-03-11T00:19:42.487Z,24.12
2023-03-11T00:22:27.189Z,24.11
2023-03-11T00:25:12.216Z,24.10
2023-03-11T00:27:57.276Z,24.10
2023-03-11T00:30:42.713Z,24.09
2023-03-11T00:33:27.649Z,24.07
2023-03-11T00:36:28.817Z,24.08
2023-03-11T00:39:13.762Z,24.07
2023-03-11T00:41:58.886Z,24.07
2023-03-11T00:44:43.845Z,24.04
2023-03-11T00:47:28.605Z,24.04
2023-03-11T00:50:15.720Z,24.05
2023-03-11T00:53:00.776Z,24.03
2023-03-11T00:55:46.181Z,24.04
2023-03-11T00:58:33.154Z,24.03
2023-03-11T01:01:19.174Z,24.03
2023-03-11T01:04:04.642Z,24.03
2023-03-11T01:06:50.029Z,24.02
2023-03-11T01:09:34.974Z,24.02
2023-03-11T01:12:20.347Z,24.01
2023-03-11T01:15:05.811Z,24.01
2023-03-11T01:17:51.070Z,24.00
2023-03-11T01:20:37.553Z,24.00
2023-03-11T01:23:23.359Z,24.00
2023-03-11T01:26:08.605Z,23.99
2023-03-11T01:28:53.471Z,23.98
2023-03-11T01:31:38.476Z,23.98
2023-03-11T01:34:23.778Z,23.98
2023-03-11T01:37:08.571Z,23.97
2023-03-11T01:39:53.823Z,23.97
2023-03-11T01:42:38.660Z,23.97
2023-03-11T01:45:23.861Z,23.96
2023-03-11T01:48:09.670Z,23.97
2023-03-11T01:50:55.899Z,23.96
2023-03-11T01:53:40.771Z,23.95
2023-03-11T01:56:26.253Z,23.96
2023-03-11T01:59:12.230Z,23.94
2023-03-11T02:02:15.864Z,23.95
2023-03-11T02:05:01.318Z,23.94
2023-03-11T02:07:47.256Z,23.94
2023-03-11T02:10:35.150Z,23.95
2023-03-11T02:13:20.688Z,23.94
2023-03-11T02:16:06.232Z,23.93
2023-03-11T02:18:51.758Z,23.94
2023-03-11T02:21:37.122Z,23.94
2023-03-11T02:24:36.756Z,23.93
2023-03-11T02:27:22.262Z,23.92
2023-03-11T02:30:08.857Z,23.92
2023-03-11T02:32:55.394Z,23.92
2023-03-11T02:35:40.610Z,23.92
2023-03-11T02:38:25.987Z,23.92
2023-03-11T02:41:12.140Z,23.92
2023-03-11T02:43:57.057Z,23.91
2023-03-11T02:46:43.011Z,23.91
2023-03-11T02:49:29.683Z,23.90
2023-03-11T02:52:14.879Z,23.90
2023-03-11T02:55:00.348Z,23.90
2023-03-11T02:57:46.453Z,23.90
2023-03-11T03:00:32.202Z,23.90
2023-03-11T03:03:22.676Z,23.89
2023-03-11T03:06:07.825Z,23.89
2023-03-11T03:08:53.390Z,23.89
2023-03-11T03:11:38.779Z,23.89
2023-03-11T03:14:24.127Z,23.89
2023-03-11T03:17:09.604Z,23.88
2023-03-11T03:19:54.873Z,23.87
2023-03-11T03:22:43.393Z,23.88
2023-03-11T03:25:31.302Z,23.88
2023-03-11T03:28:20.225Z,23.87
2023-03-11T03:31:06.873Z,23.88
2023-03-11T03:33:52.148Z,23.86
2023-03-11T03:36:37.060Z,23.85
2023-03-11T03:39:23.327Z,23.86
2023-03-11T03:42:10.639Z,23.86
2023-03-11T03:44:58.926Z,23.84
2023-03-11T03:47:44.224Z,23.85
2023-03-11T03:50:29.124Z,23.84
2023-03-11T03:53:14.946Z,23.83
2023-03-11T03:56:07.997Z,23.84
2023-03-11T03:58:54.009Z,23.83
2023-03-11T04:01:41.635Z,23.83
2023-03-11T04:04:27.136Z,23.83
2023-03-11T04:07:13.233Z,23.82
2023-03-11T04:09:58.853Z,23.80
2023-03-11T04:12:44.299Z,23.81
2023-03-11T04:15:30.254Z,23.81
2023-03-11T04:18:15.506Z,23.80
2023-03-11T04:21:04.428Z,23.80
2023-03-11T04:23:49.605Z,23.81
2023-03-11T04:26:41.109Z,23.79
2023-03-11T04:29:30.567Z,23.78
2023-03-11T04:32:15.968Z,23.79
2023-03-11T04:35:02.198Z,23.80
2023-03-11T04:37:47.434Z,23.79
2023-03-11T04:40:33.000Z,23.77
2023-03-11T04:43:18.520Z,23.76
2023-03-11T04:46:04.047Z,23.76
2023-03-11T04:48:50.110Z,23.76
2023-03-11T04:51:35.880Z,23.78
2023-03-11T04:54:21.791Z,23.76
2023-03-11T04:57:07.253Z,23.79
2023-03-11T04:59:53.538Z,23.78
2023-03-11T05:02:39.250Z,23.78
2023-03-11T05:05:24.644Z,23.78
2023-03-11T05:08:09.973Z,23.75
2023-03-11T05:10:55.551Z,23.75
2023-03-11T05:13:41.817Z,23.76
2023-03-11T05:16:27.465Z,23.79
2023-03-11T05:19:30.899Z,23.83
2023-03-11T05:22:17.667Z,23.89
2023-03-11T05:25:03.960Z,23.96
2023-03-11T05:27:49.392Z,24.04
2023-03-11T05:30:35.655Z,24.13
2023-03-11T05:33:21.524Z,24.21
2023-03-11T05:36:08.943Z,24.29
2023-03-11T05:38:55.573Z,24.38
2023-03-11T05:41:40.996Z,24.47
2023-03-11T05:44:26.257Z,24.54
2023-03-11T05:47:13.143Z,24.60
2023-03-11T05:49:59.107Z,24.67
2023-03-11T05:52:44.331Z,24.72
2023-03-11T05:55:30.226Z,24.79
2023-03-11T05:58:15.845Z,24.87
2023-03-11T06:01:01.069Z,24.92
2023-03-11T06:03:46.853Z,24.99
2023-03-11T06:06:33.101Z,25.06
2023-03-11T06:09:18.413Z,25.13
2023-03-11T06:12:04.413Z,25.17
2023-03-11T06:15:02.987Z,25.22
2023-03-11T06:17:48.318Z,25.27
2023-03-11T06:20:33.793Z,25.36
2023-03-11T06:23:19.380Z,25.44
2023-03-11T06:26:05.102Z,25.49
2023-03-11T06:28:55.412Z,25.56
2023-03-11T06:31:41.512Z,25.61
2023-03-11T06:34:29.306Z,25.66
2023-03-11T06:37:15.019Z,25.69
2023-03-11T06:40:00.492Z,25.76
2023-03-11T06:42:46.484Z,25.80
2023-03-11T06:45:31.724Z,25.85
2023-03-11T06:48:17.075Z,25.89
2023-03-11T06:51:03.003Z,25.92
2023-03-11T06:53:50.253Z,25.97
2023-03-11T06:56:36.542Z,26.01
2023-03-11T06:59:24.715Z,26.06
2023-03-11T07:02:10.881Z,26.11
2023-03-11T07:04:56.042Z,26.17
2023-03-11T07:07:40.987Z,26.22
2023-03-11T07:10:26.326Z,26.26
2023-03-11T07:13:11.785Z,26.30
2023-03-11T07:16:07.690Z,26.36
2023-03-11T07:18:54.350Z,26.39
2023-03-11T07:21:39.512Z,26.42
2023-03-11T07:24:24.605Z,26.48
2023-03-11T07:27:09.580Z,26.51
2023-03-11T07:29:54.498Z,26.56
2023-03-11T07:32:39.581Z,26.61
2023-03-11T07:35:50.450Z,26.64
2023-03-11T07:38:35.801Z,26.70
2023-03-11T07:41:20.646Z,26.75
2023-03-11T07:44:05.542Z,26.78
2023-03-11T07:46:50.729Z,26.84
2023-03-11T07:49:35.749Z,26.86
2023-03-11T07:52:20.704Z,26.90
2023-03-11T07:55:05.638Z,26.93
2023-03-11T07:57:51.673Z,26.98
2023-03-11T08:00:36.464Z,27.03
2023-03-11T08:03:21.430Z,27.05
2023-03-11T08:06:16.283Z,27.10
2023-03-11T08:09:02.573Z,27.15
2023-03-11T08:11:49.683Z,27.18
2023-03-11T08:14:35.220Z,27.21
2023-03-11T08:17:20.005Z,27.26
2023-03-11T08:20:08.380Z,27.29
2023-03-11T08:22:58.167Z,27.31
2023-03-11T08:25:43.881Z,27.35
2023-03-11T08:28:28.665Z,27.36
2023-03-11T08:31:14.621Z,27.40
2023-03-11T08:34:01.362Z,27.42
2023-03-11T08:36:46.759Z,27.37
2023-03-11T08:39:31.763Z,27.17
2023-03-11T08:42:17.042Z,26.97
2023-03-11T08:45:01.994Z,26.73
2023-03-11T08:47:47.415Z,26.52
2023-03-11T08:50:36.583Z,26.32
2023-03-11T08:53:26.324Z,26.11
2023-03-11T08:56:11.254Z,25.94
2023-03-11T08:58:56.061Z,25.87
2023-03-11T09:01:42.521Z,25.83
2023-03-11T09:04:27.331Z,25.84
2023-03-11T09:07:12.196Z,25.85
2023-03-11T09:09:57.597Z,25.86
2023-03-11T09:12:42.727Z,25.86
2023-03-11T09:15:28.907Z,25.84
2023-03-11T09:18:13.993Z,25.84
2023-03-11T09:21:00.340Z,25.83
2023-03-11T09:23:45.457Z,25.82
2023-03-11T09:26:30.757Z,25.81
2023-03-11T09:29:15.731Z,25.81
2023-03-11T09:32:01.158Z,25.80
2023-03-11T09:34:46.073Z,25.83
2023-03-11T09:37:31.007Z,25.82
2023-03-11T09:40:17.961Z,25.81
2023-03-11T09:43:06.850Z,25.77
2023-03-11T09:46:27.593Z,25.72
2023-03-11T09:49:12.849Z,25.70
2023-03-11T09:52:17.203Z,25.70
2023-03-11T09:55:02.225Z,25.70
2023-03-11T09:57:46.930Z,25.70
2023-03-11T10:00:32.153Z,25.73
2023-03-11T10:03:39.895Z,25.75
2023-03-11T10:06:26.064Z,25.74
2023-03-11T10:09:29.616Z,25.70
2023-03-11T10:12:14.462Z,25.69
2023-03-11T10:15:12.439Z,25.66
2023-03-11T10:18:01.462Z,25.63
2023-03-11T10:20:55.148Z,25.61
2023-03-11T10:24:01.869Z,25.54
2023-03-11T10:26:48.752Z,25.34
2023-03-11T10:29:45.915Z,25.14
2023-03-11T10:32:44.460Z,24.94
2023-03-11T10:35:32.734Z,24.85
2023-03-11T10:38:35.178Z,24.84
2023-03-11T10:41:39.313Z,24.84
2023-03-11T10:44:37.561Z,24.83
2023-03-11T10:47:24.280Z,24.85
2023-03-11T10:50:13.805Z,24.86
2023-03-11T10:53:06.810Z,24.86
2023-03-11T10:55:53.766Z,24.85
2023-03-11T10:58:38.885Z,24.85
2023-03-11T11:01:24.286Z,24.85
2023-03-11T11:04:23.741Z,24.83
2023-03-11T11:07:21.520Z,24.81
2023-03-11T11:10:23.246Z,24.79
2023-03-11T11:13:08.321Z,24.76
2023-03-11T11:15:55.586Z,24.82
2023-03-11T11:18:44.437Z,24.95
2023-03-11T11:21:34.180Z,25.07
2023-03-11T11:24:24.114Z,25.13
2023-03-11T11:27:22.399Z,25.15
2023-03-11T11:30:07.405Z,25.20
2023-03-11T11:32:53.907Z,25.24
2023-03-11T11:35:38.949Z,25.26
2023-03-11T11:38:24.536Z,25.27
2023-03-11T11:41:11.153Z,25.28
2023-03-11T11:43:56.719Z,25.26
2023-03-11T11:46:43.273Z,25.23
2023-03-11T11:49:29.110Z,25.19
2023-03-11T11:52:16.160Z,25.15
2023-03-11T11:55:01.379Z,25.10
2023-03-11T11:57:46.520Z,25.02
2023-03-11T12:00:38.090Z,25.06
2023-03-11T12:03:38.453Z,25.14
2023-03-11T12:06:59.130Z,25.21
2023-03-11T12:09:46.905Z,25.28
2023-03-11T12:12:40.746Z,25.32
2023-03-11T12:15:29.641Z,25.34
2023-03-11T12:18:20.349Z,25.37
2023-03-11T12:21:30.613Z,25.35
2023-03-11T12:24:15.678Z,25.37
2023-03-11T12:26:42.557Z,25.39
2023-03-11T12:29:53.582Z,25.40
2023-03-11T12:32:40.157Z,25.43
2023-03-11T12:35:29.861Z,25.42
2023-03-11T12:38:17.709Z,25.44
2023-03-11T12:41:06.385Z,25.45
2023-03-11T12:43:51.424Z,25.45
2023-03-11T12:46:57.576Z,25.47
2023-03-11T12:49:44.056Z,25.48
2023-03-11T12:52:29.383Z,25.48
2023-03-11T12:55:17.517Z,25.44
2023-03-11T12:58:24.300Z,25.44
2023-03-11T13:01:12.457Z,25.44
2023-03-11T13:04:01.138Z,25.33
2023-03-11T13:07:01.699Z,25.19
2023-03-11T13:09:59.489Z,25.05
2023-03-11T13:12:44.556Z,24.98
2023-03-11T13:15:30.816Z,24.94
2023-03-11T13:18:24.167Z,24.87
2023-03-11T13:21:27.720Z,24.77
2023-03-11T13:24:18.602Z,24.78
2023-03-11T13:27:05.517Z,24.85
2023-03-11T13:30:10.219Z,24.92
2023-03-11T13:33:13.968Z,24.98
2023-03-11T13:36:04.880Z,25.06
2023-03-11T13:39:08.367Z,25.10
2023-03-11T13:41:53.224Z,25.14
2023-03-11T13:44:38.030Z,25.17
2023-03-11T13:47:23.104Z,25.19
2023-03-11T13:50:08.474Z,25.21
2023-03-11T13:52:53.792Z,25.21
2023-03-11T13:55:40.384Z,25.22
2023-03-11T13:58:26.155Z,25.24
2023-03-11T14:01:14.935Z,25.23
2023-03-11T14:04:00.330Z,25.23
2023-03-11T14:06:45.677Z,25.24
2023-03-11T14:09:30.871Z,25.24
2023-03-11T14:12:18.596Z,25.25
2023-03-11T14:15:07.610Z,25.27
2023-03-11T14:17:52.888Z,25.28
2023-03-11T14:20:38.194Z,25.30
2023-03-11T14:23:23.388Z,25.32
2023-03-11T14:26:09.551Z,25.31
2023-03-11T14:28:55.165Z,25.32
2023-03-11T14:31:41.068Z,25.32
2023-03-11T14:34:27.596Z,25.32
2023-03-11T14:37:32.272Z,25.34
2023-03-11T14:40:20.420Z,25.33
2023-03-11T14:43:06.650Z,25.34
2023-03-11T14:45:51.627Z,25.33
2023-03-11T14:48:41.629Z,25.33
2023-03-11T14:51:29.177Z,25.34
2023-03-11T14:54:18.904Z,25.33
2023-03-11T14:57:05.031Z,25.31
2023-03-11T14:59:50.476Z,25.30
2023-03-11T15:02:39.993Z,25.30
2023-03-11T15:05:27.744Z,25.30
2023-03-11T15:08:12.611Z,25.31
2023-03-11T15:11:05.188Z,25.32
2023-03-11T15:13:53.082Z,25.32
2023-03-11T15:16:38.116Z,25.33
2023-03-11T15:19:29.188Z,25.32
2023-03-11T15:22:22.687Z,25.33
2023-03-11T15:25:18.374Z,25.33
2023-03-11T15:28:22.243Z,25.33
2023-03-11T15:31:22.362Z,25.32
2023-03-11T15:34:17.095Z,25.32
2023-03-11T15:37:04.005Z,25.32
2023-03-11T15:39:51.124Z,25.32
2023-03-11T15:42:36.158Z,25.33
2023-03-11T15:45:20.897Z,25.31
2023-03-11T15:48:05.782Z,25.31
2023-03-11T15:50:55.178Z,25.30
2023-03-11T15:53:40.636Z,25.32
2023-03-11T15:56:25.503Z,25.31
2023-03-11T15:59:12.250Z,25.31
2023-03-11T16:01:59.500Z,25.31
2023-03-11T16:04:44.782Z,25.31
2023-03-11T16:07:39.617Z,25.30
2023-03-11T16:10:25.745Z,25.30
2023-03-11T16:13:12.021Z,25.31
2023-03-11T16:15:57.169Z,25.31
2023-03-11T16:18:42.251Z,25.31
2023-03-11T16:21:30.940Z,25.29
2023-03-11T16:24:19.778Z,25.30
2023-03-11T16:27:05.458Z,25.30
2023-03-11T16:29:50.763Z,25.28
2023-03-11T16:32:35.539Z,25.29
2023-03-11T16:35:21.179Z,25.29
2023-03-11T16:38:07.008Z,25.29
2023-03-11T16:41:01.686Z,25.28
2023-03-11T16:43:46.651Z,25.29
2023-03-11T16:46:31.719Z,25.28
2023-03-11T16:49:17.101Z,25.27
2023-03-11T16:52:01.953Z,25.27
2023-03-11T16:54:47.474Z,25.27
2023-03-11T16:57:32.753Z,25.27
2023-03-11T17:00:18.215Z,25.27
2023-03-11T17:03:03.735Z,25.26
2023-03-11T17:05:49.041Z,25.27
2023-03-11T17:08:34.303Z,25.25
2023-03-11T17:11:22.666Z,25.24
2023-03-11T17:14:16.175Z,25.25
2023-03-11T17:17:01.837Z,25.25
2023-03-11T17:19:46.794Z,25.24
2023-03-11T17:22:32.455Z,25.25
2023-03-11T17:25:17.661Z,25.23
2023-03-11T17:28:02.889Z,25.23
2023-03-11T17:30:48.096Z,25.24
2023-03-11T17:33:33.592Z,25.22
2023-03-11T17:36:18.462Z,25.22
2023-03-11T17:39:03.660Z,25.21
2023-03-11T17:41:49.141Z,25.06
2023-03-11T17:44:50.113Z,25.20
2023-03-11T17:47:36.666Z,25.20
2023-03-11T17:50:21.770Z,25.20
2023-03-11T17:53:06.910Z,25.19
2023-03-11T17:55:51.823Z,25.20
2023-03-11T17:58:36.580Z,25.19
2023-03-11T18:01:25.161Z,25.18
2023-03-11T18:04:10.200Z,25.17
2023-03-11T18:06:55.590Z,25.19
2023-03-11T18:09:40.841Z,25.21
2023-03-11T18:12:26.129Z,25.22
2023-03-11T18:15:16.060Z,25.21
2023-03-11T18:18:01.223Z,25.22
2023-03-11T18:20:46.681Z,25.21
2023-03-11T18:23:34.641Z,25.20
2023-03-11T18:26:19.537Z,25.21
2023-03-11T18:29:04.720Z,25.20
2023-03-11T18:31:49.989Z,25.19
2023-03-11T18:34:35.466Z,25.19
2023-03-11T18:37:20.886Z,25.19
2023-03-11T18:40:07.113Z,25.19
2023-03-11T18:42:52.376Z,25.18
2023-03-11T18:45:38.748Z,25.17
2023-03-11T18:48:24.032Z,25.16
2023-03-11T18:51:09.431Z,25.16
2023-03-11T18:53:54.633Z,25.16
2023-03-11T18:56:39.674Z,25.16
2023-03-11T18:59:26.678Z,25.14
2023-03-11T19:02:11.709Z,25.15
2023-03-11T19:04:56.594Z,25.14
2023-03-11T19:07:42.000Z,25.14
2023-03-11T19:10:27.455Z,25.13
2023-03-11T19:13:12.360Z,25.13
2023-03-11T19:15:59.560Z,25.13
2023-03-11T19:18:44.468Z,24.97
2023-03-11T19:21:29.608Z,25.12
2023-03-11T19:24:14.664Z,25.11
2023-03-11T19:26:59.430Z,25.11
2023-03-11T19:29:45.249Z,25.10
2023-03-11T19:32:30.673Z,25.09
2023-03-11T19:35:17.004Z,25.08
2023-03-11T19:38:02.168Z,25.08
2023-03-11T19:40:50.998Z,25.07
2023-03-11T19:43:35.995Z,25.05
2023-03-11T19:46:21.558Z,25.05
2023-03-11T19:49:06.465Z,25.04
2023-03-11T19:51:52.845Z,25.02
2023-03-11T19:54:37.589Z,25.03
2023-03-11T19:57:22.937Z,25.02
2023-03-11T20:00:08.659Z,25.03
2023-03-11T20:02:54.491Z,25.01
2023-03-11T20:05:40.792Z,25.01
2023-03-11T20:08:26.097Z,25.00
2023-03-11T20:11:11.469Z,25.00
2023-03-11T20:13:56.762Z,24.99
2023-03-11T20:16:42.236Z,24.98
2023-03-11T20:19:27.566Z,24.97
2023-03-11T20:22:13.093Z,24.95
2023-03-11T20:24:57.929Z,24.96
2023-03-11T20:27:43.160Z,24.95
2023-03-11T20:30:29.199Z,24.95
2023-03-11T20:33:14.268Z,24.95
2023-03-11T20:36:04.591Z,24.94
2023-03-11T20:38:50.174Z,24.93
2023-03-11T20:41:38.082Z,24.92
2023-03-11T20:44:23.048Z,24.91
2023-03-11T20:47:08.457Z,24.90
2023-03-11T20:49:53.918Z,24.90
2023-03-11T20:52:38.667Z,24.89
2023-03-11T20:55:23.753Z,24.88
2023-03-11T20:58:08.932Z,24.88
2023-03-11T21:00:54.311Z,24.87
2023-03-11T21:03:39.842Z,24.86
2023-03-11T21:06:29.389Z,24.85
2023-03-11T21:09:14.930Z,24.85
2023-03-11T21:12:01.564Z,24.83
2023-03-11T21:14:46.475Z,24.84
2023-03-11T21:17:32.769Z,24.83
2023-03-11T21:20:17.593Z,24.83
2023-03-11T21:23:02.934Z,24.81
2023-03-11T21:25:48.298Z,24.81
2023-03-11T21:28:38.754Z,24.80
2023-03-11T21:31:27.129Z,24.79
2023-03-11T21:34:13.944Z,24.79
2023-03-11T21:36:59.069Z,24.78
2023-03-11T21:39:44.536Z,24.77
2023-03-11T21:42:30.121Z,24.76
2023-03-11T21:45:15.326Z,24.75
2023-03-11T21:48:00.974Z,24.74
2023-03-11T21:50:48.437Z,24.73
2023-03-11T21:53:33.403Z,24.71
2023-03-11T21:56:18.230Z,24.70
2023-03-11T21:59:03.846Z,24.70
2023-03-11T22:01:49.119Z,24.69
2023-03-11T22:04:34.427Z,24.69
2023-03-11T22:07:19.696Z,24.67
2023-03-11T22:10:05.405Z,24.67
2023-03-11T22:12:50.458Z,24.66
2023-03-11T22:15:37.521Z,24.65
2023-03-11T22:18:22.645Z,24.64
2023-03-11T22:21:10.301Z,24.64
2023-03-11T22:23:55.909Z,24.64
2023-03-11T22:26:40.672Z,24.63
2023-03-11T22:29:25.576Z,24.61
2023-03-11T22:32:10.557Z,24.61
2023-03-11T22:34:55.646Z,24.60
2023-03-11T22:37:40.504Z,24.61
2023-03-11T22:40:26.827Z,24.61
2023-03-11T22:43:11.822Z,24.60
2023-03-11T22:45:57.208Z,24.59
2023-03-11T22:48:42.595Z,24.58
2023-03-11T22:51:27.837Z,24.58
2023-03-11T22:54:12.927Z,24.56
2023-03-11T22:56:57.990Z,24.55
2023-03-11T22:59:42.896Z,24.54
2023-03-11T23:02:28.031Z,24.54
2023-03-11T23:05:13.564Z,24.52
2023-03-11T23:07:58.724Z,24.50
2023-03-11T23:10:44.623Z,24.50
2023-03-11T23:13:30.467Z,24.48
2023-03-11T23:16:16.996Z,24.48
2023-03-11T23:19:02.089Z,24.46
2023-03-11T23:21:46.968Z,24.45
2023-03-11T23:24:31.900Z,24.44
2023-03-11T23:27:16.811Z,24.41
2023-03-11T23:30:01.795Z,24.43
2023-03-11T23:32:46.965Z,24.41
2023-03-11T23:35:32.541Z,24.42
2023-03-11T23:38:17.648Z,24.39
2023-03-11T23:41:12.950Z,24.39
2023-03-11T23:43:58.215Z,24.38
2023-03-11T23:46:43.073Z,24.36
2023-03-11T23:49:27.870Z,24.35
2023-03-11T23:52:12.648Z,24.33
2023-03-11T23:54:57.480Z,24.31
2023-03-11T23:57:42.452Z,24.31
